Terminal Aerodrome Forecast
Issued by NWS

Home | Current Version | Previous Version | Text Only | Print | Product List | Glossary On
Versions: 1 2 3 4 5 6 7 8 9 10 11 12 13 14 15 16 17 18 19 20 21 22 23 24 25 26
000
FTPA31 PHFO 062300
TAFJHM
TAF
PHJH 062335Z 0700/0724 05015G25KT P6SM FEW025 SCT045
     FM070400 04010G18KT P6SM FEW020 SCT040
     FM072000 06015G25KT P6SM FEW025 SCT045
      AMD NOT SKED AFT 070400=

USA.gov is the U.S. government's official web portal to all federal, state and local government web resources and services.